Teheran, Tehran Mehrabad International Airport (OIII)

NameTehran Mehrabad International Airport
CityTeheran
CountryIran (Islamic Republic of)
ICAOOIII
IATATHR
Altitude1208 m
CoordinatesGoogle Map
Live Air TrafficLiveATC.net
METAROIII 201330Z 21008KT 9999 FEW035 FEW040CB 23/02 Q1014 A2996
2020-04-20 13:30:00 Wind: South-Southwest (210°) 4.12 m/s - Visibility: > 10000 m - Temperature: 23 °C - Dew point: 2 °C - Humidity: 25.2% - Pressure: 1014.56 hPa
Statistics

The table below shows the detailed information of all flights to/from Teheran, Tehran Mehrabad International Airport (OIII).